Time;durP1;ratioP1;P1;durP2;ratioP2;P2;SDS_P1;SDS_P2;PMS_P1;PMS_P2;Temp;Humidity;BMP_temperature;BMP_pressure;BME280_temperature;BME280_humidity;BME280_pressure;Samples;Min_cycle;Max_cycle;Signal;HPM_P1;HPM_P2
2023/06/25 00:00:05;;;;;;;11.93;7.65;;;15.30;84.60;;;;;;4993974;28;20204;-88
2023/06/25 00:02:32;;;;;;;8.15;7.35;;;15.30;84.60;;;;;;4991727;28;20196;-88
2023/06/25 00:04:59;;;;;;;7.88;7.07;;;15.20;84.50;;;;;;4982637;28;20705;-86
2023/06/25 00:07:25;;;;;;;8.70;7.38;;;15.20;84.70;;;;;;4991156;28;20196;-88
2023/06/25 00:09:55;;;;;;;8.20;7.38;;;15.20;84.70;;;;;;4983288;28;20280;-87
2023/06/25 00:12:22;;;;;;;8.07;6.95;;;15.10;85.30;;;;;;4989201;28;20208;-89
2023/06/25 00:14:49;;;;;;;7.88;7.07;;;15.10;86.00;;;;;;4967982;28;20201;-85
2023/06/25 00:17:17;;;;;;;8.02;7.15;;;15.10;87.20;;;;;;4982148;28;20211;-88
2023/06/25 00:19:44;;;;;;;8.93;7.20;;;15.00;86.30;;;;;;4984773;28;20291;-86
2023/06/25 00:22:11;;;;;;;8.30;7.50;;;15.00;86.10;;;;;;4977730;28;20210;-88
2023/06/25 00:24:39;;;;;;;8.95;7.05;;;15.00;86.00;;;;;;4990946;28;20220;-88
2023/06/25 00:27:08;;;;;;;8.05;7.25;;;15.00;86.00;;;;;;4974900;28;20215;-89
2023/06/25 00:29:35;;;;;;;7.78;6.97;;;14.90;85.90;;;;;;4994486;28;20199;-85
2023/06/25 00:32:02;;;;;;;9.85;7.05;;;14.90;86.00;;;;;;4990294;28;20211;-86
2023/06/25 00:34:29;;;;;;;8.63;6.72;;;14.80;86.00;;;;;;4970905;28;20653;-86
2023/06/25 00:36:56;;;;;;;8.93;6.45;;;14.80;85.90;;;;;;4982065;28;20196;-88
2023/06/25 00:39:23;;;;;;;7.10;6.35;;;14.80;85.80;;;;;;4957530;28;20219;-88
2023/06/25 00:41:50;;;;;;;7.60;6.80;;;14.80;85.00;;;;;;4969968;28;20204;-87
2023/06/25 00:44:18;;;;;;;7.75;6.95;;;14.70;84.70;;;;;;4989504;28;20228;-90
2023/06/25 00:46:46;;;;;;;7.57;6.78;;;14.70;84.80;;;;;;4991074;28;20222;-88
2023/06/25 00:49:13;;;;;;;8.43;6.45;;;14.70;84.60;;;;;;4988215;28;20200;-87
2023/06/25 00:51:40;;;;;;;7.85;6.70;;;14.70;84.40;;;;;;4990089;28;20731;-88
2023/06/25 00:54:07;;;;;;;8.45;6.57;;;14.70;84.10;;;;;;4985558;28;20200;-88
2023/06/25 00:56:34;;;;;;;7.68;6.88;;;14.70;83.90;;;;;;4987128;28;20239;-88
2023/06/25 00:59:03;;;;;;;7.25;6.55;;;14.60;85.60;;;;;;4981713;28;20196;-88
2023/06/25 01:01:43;;;;;;;7.05;6.35;;;14.60;85.70;;;;;;4978720;28;20200;-88
2023/06/25 01:04:13;;;;;;;7.07;6.32;;;14.60;86.60;;;;;;4982577;28;20208;-86
2023/06/25 01:06:47;;;;;;;7.43;5.72;;;14.60;86.70;;;;;;4988240;28;20199;-87
2023/06/25 01:09:15;;;;;;;7.85;6.43;;;14.50;86.40;;;;;;4980656;28;20197;-88
2023/06/25 01:11:42;;;;;;;7.68;6.05;;;14.50;86.60;;;;;;4982884;28;21094;-89
2023/06/25 01:14:09;;;;;;;6.63;5.90;;;14.40;86.40;;;;;;4985821;28;20200;-86
2023/06/25 01:16:39;;;;;;;5.80;5.22;;;14.40;86.70;;;;;;4987812;28;20196;-85
2023/06/25 01:19:06;;;;;;;7.28;5.95;;;14.50;86.70;;;;;;4986599;28;20221;-87
2023/06/25 01:21:34;;;;;;;6.97;6.00;;;14.40;86.30;;;;;;4988004;28;20200;-88
2023/06/25 01:24:03;;;;;;;6.38;5.65;;;14.40;85.80;;;;;;4972712;28;20254;-85
2023/06/25 01:26:30;;;;;;;7.03;6.07;;;14.30;85.50;;;;;;4989266;28;20208;-86
2023/06/25 01:28:57;;;;;;;7.00;6.18;;;14.30;85.50;;;;;;4983498;28;20199;-87
2023/06/25 01:31:25;;;;;;;6.35;5.75;;;14.30;85.90;;;;;;4982190;28;20557;-88
2023/06/25 01:33:52;;;;;;;6.72;6.03;;;14.20;86.50;;;;;;4955036;28;20270;-87
2023/06/25 01:36:19;;;;;;;6.35;5.60;;;14.20;86.20;;;;;;4984888;28;20208;-87
2023/06/25 01:38:46;;;;;;;6.97;5.93;;;14.20;86.00;;;;;;4990766;28;20574;-88
2023/06/25 01:41:15;;;;;;;7.78;6.03;;;14.20;85.90;;;;;;4975254;28;20207;-89
2023/06/25 01:43:42;;;;;;;7.00;6.20;;;14.20;86.70;;;;;;4987125;28;20617;-86
2023/06/25 01:46:09;;;;;;;7.63;5.78;;;14.10;85.80;;;;;;4984370;28;20228;-87
2023/06/25 01:48:36;;;;;;;8.30;5.60;;;14.10;85.40;;;;;;4988802;28;20269;-89
2023/06/25 01:51:03;;;;;;;6.85;5.63;;;14.10;85.70;;;;;;4982684;28;20201;-86
2023/06/25 01:53:30;;;;;;;6.55;5.72;;;14.10;85.30;;;;;;4987989;28;20196;-85
2023/06/25 01:55:57;;;;;;;6.97;6.10;;;14.10;85.80;;;;;;4991040;28;20211;-86
2023/06/25 01:58:25;;;;;;;6.70;6.00;;;14.10;85.80;;;;;;4983591;28;20196;-88
2023/06/25 02:00:52;;;;;;;6.28;5.68;;;14.10;85.40;;;;;;4970824;28;20251;-88
2023/06/25 02:03:19;;;;;;;7.93;5.40;;;14.00;85.00;;;;;;4984772;28;20649;-88
2023/06/25 02:05:46;;;;;;;7.32;6.00;;;14.00;85.20;;;;;;4983838;28;20235;-88
2023/06/25 02:08:13;;;;;;;6.88;5.70;;;14.00;85.30;;;;;;4989846;28;20203;-88
2023/06/25 02:10:40;;;;;;;6.78;6.07;;;13.90;85.70;;;;;;4955022;28;20204;-87
2023/06/25 02:13:07;;;;;;;6.50;5.88;;;13.90;86.00;;;;;;4968589;28;20200;-89
2023/06/25 02:15:35;;;;;;;6.20;5.60;;;13.90;86.30;;;;;;4986654;28;20212;-88
2023/06/25 02:18:02;;;;;;;7.20;5.88;;;13.90;86.60;;;;;;4975184;28;20232;-87
2023/06/25 02:20:29;;;;;;;6.28;5.45;;;13.90;87.20;;;;;;4986845;28;20196;-88
2023/06/25 02:22:56;;;;;;;8.73;5.78;;;13.90;88.00;;;;;;4970616;28;20204;-84
2023/06/25 02:25:23;;;;;;;8.65;5.45;;;13.90;88.30;;;;;;4991239;28;20212;-86
2023/06/25 02:27:50;;;;;;;7.05;6.00;;;13.80;88.60;;;;;;4982390;28;20263;-86
2023/06/25 02:30:17;;;;;;;5.80;5.20;;;13.80;88.40;;;;;;4990387;28;20200;-88
2023/06/25 02:32:45;;;;;;;6.53;5.65;;;13.80;89.10;;;;;;4958075;28;20210;-85
2023/06/25 02:35:12;;;;;;;6.22;5.60;;;13.70;89.30;;;;;;4991743;28;20211;-87
2023/06/25 02:37:39;;;;;;;6.38;5.75;;;13.80;88.70;;;;;;4964833;28;20202;-87
2023/06/25 02:40:07;;;;;;;6.93;5.75;;;13.70;89.00;;;;;;4991406;28;20222;-86
2023/06/25 02:42:34;;;;;;;6.82;6.03;;;13.70;89.30;;;;;;4988412;28;20196;-86
2023/06/25 02:45:01;;;;;;;5.88;5.38;;;13.80;89.50;;;;;;4984294;28;20216;-88
2023/06/25 02:47:28;;;;;;;6.18;5.57;;;13.80;89.70;;;;;;4973983;28;20218;-87
2023/06/25 02:49:56;;;;;;;6.50;5.88;;;13.80;89.70;;;;;;4987104;28;20210;-89
2023/06/25 02:52:23;;;;;;;7.28;6.40;;;13.80;90.00;;;;;;4985307;28;20205;-88
2023/06/25 02:54:50;;;;;;;7.07;6.38;;;13.90;89.30;;;;;;4970118;28;20216;-88
2023/06/25 02:57:17;;;;;;;7.15;6.10;;;14.00;88.50;;;;;;4971924;28;20536;-88
2023/06/25 02:59:44;;;;;;;7.25;6.53;;;14.10;87.40;;;;;;4965143;28;20213;-88
2023/06/25 03:02:11;;;;;;;7.30;6.50;;;14.20;86.80;;;;;;4974352;28;20219;-88
2023/06/25 03:04:38;;;;;;;6.70;6.00;;;14.20;86.20;;;;;;4969580;28;20199;-85
2023/06/25 03:07:07;;;;;;;7.00;6.30;;;14.10;86.30;;;;;;4969850;28;20197;-84
2023/06/25 03:09:34;;;;;;;6.65;5.95;;;14.10;87.60;;;;;;4985053;28;20193;-88
2023/06/25 03:12:00;;;;;;;7.28;6.50;;;14.10;88.90;;;;;;4984986;28;20537;-88
2023/06/25 03:14:27;;;;;;;7.90;6.45;;;14.10;88.60;;;;;;4961784;28;20602;-88
2023/06/25 03:16:54;;;;;;;6.95;6.25;;;14.10;89.10;;;;;;4986757;28;20208;-84
2023/06/25 03:19:21;;;;;;;7.30;6.50;;;14.00;88.70;;;;;;4988511;28;20220;-87
2023/06/25 03:21:48;;;;;;;7.30;6.60;;;13.90;89.30;;;;;;4954727;28;20602;-84
2023/06/25 03:24:17;;;;;;;8.07;6.40;;;13.90;89.80;;;;;;4986555;28;20196;-87
2023/06/25 03:26:44;;;;;;;7.28;6.40;;;13.90;89.70;;;;;;4981918;28;20219;-88
2023/06/25 03:29:11;;;;;;;7.95;6.32;;;13.90;89.80;;;;;;4967857;28;20672;-86
2023/06/25 03:31:38;;;;;;;7.45;6.25;;;13.80;89.70;;;;;;4965546;28;20653;-85
2023/06/25 03:34:05;;;;;;;6.30;5.70;;;13.80;89.70;;;;;;4988461;28;20223;-86
2023/06/25 03:36:32;;;;;;;6.18;5.57;;;13.80;90.40;;;;;;4951800;28;20300;-86
2023/06/25 03:38:59;;;;;;;6.65;5.90;;;13.80;90.30;;;;;;4972140;28;20196;-87
2023/06/25 03:41:28;;;;;;;6.85;6.03;;;13.80;90.30;;;;;;4955318;28;20207;-88
2023/06/25 03:43:55;;;;;;;9.13;6.18;;;13.70;90.10;;;;;;4967164;28;20208;-88
2023/06/25 03:46:22;;;;;;;6.85;5.75;;;13.70;90.20;;;;;;4959100;28;20630;-88
2023/06/25 03:48:49;;;;;;;7.22;6.53;;;13.70;90.20;;;;;;4974886;28;20200;-89
2023/06/25 03:51:16;;;;;;;7.78;6.07;;;13.70;90.10;;;;;;4990271;28;20199;-85
2023/06/25 03:53:43;;;;;;;6.70;6.00;;;13.70;90.10;;;;;;4984861;28;20196;-88
2023/06/25 03:56:10;;;;;;;6.20;5.60;;;13.70;90.00;;;;;;4973734;28;20262;-87
2023/06/25 03:58:38;;;;;;;6.03;5.43;;;13.70;90.60;;;;;;4985003;28;20207;-84
2023/06/25 04:01:05;;;;;;;8.15;6.13;;;13.80;90.50;;;;;;4986342;28;20212;-87
2023/06/25 04:03:32;;;;;;;6.70;6.05;;;13.80;90.50;;;;;;4967081;28;20207;-88
2023/06/25 04:05:59;;;;;;;6.57;5.90;;;13.80;90.20;;;;;;4972061;28;20890;-87
2023/06/25 04:08:26;;;;;;;6.55;5.93;;;13.90;90.10;;;;;;4983103;28;20211;-87
2023/06/25 04:10:52;;;;;;;6.72;6.03;;;13.90;90.10;;;;;;4964250;28;20200;-86
2023/06/25 04:13:19;;;;;;;6.82;6.13;;;13.90;90.40;;;;;;4959128;28;20286;-86
2023/06/25 04:15:48;;;;;;;6.38;5.78;;;14.00;90.30;;;;;;4981984;28;20201;-89
2023/06/25 04:18:15;;;;;;;6.97;6.10;;;14.00;90.30;;;;;;4988592;28;20635;-87
2023/06/25 04:20:42;;;;;;;6.50;5.68;;;14.10;90.30;;;;;;4991606;28;20735;-89
2023/06/25 04:23:09;;;;;;;5.93;5.32;;;14.10;90.10;;;;;;4969366;28;20658;-88
2023/06/25 04:25:36;;;;;;;6.60;5.90;;;14.20;90.10;;;;;;4982442;28;20223;-89
2023/06/25 04:28:03;;;;;;;6.05;5.45;;;14.20;90.30;;;;;;4980700;28;20646;-88
2023/06/25 04:30:31;;;;;;;6.50;5.80;;;14.30;90.20;;;;;;4975246;28;20278;-85
2023/06/25 04:32:59;;;;;;;6.38;5.78;;;14.30;90.00;;;;;;4987643;28;20223;-88
2023/06/25 04:35:26;;;;;;;8.60;5.28;;;14.40;89.70;;;;;;4991397;28;20211;-88
2023/06/25 04:37:53;;;;;;;8.60;5.75;;;14.40;90.00;;;;;;4991008;28;20208;-88
2023/06/25 04:40:20;;;;;;;8.32;5.88;;;14.50;89.20;;;;;;4954140;28;20204;-89
2023/06/25 04:42:47;;;;;;;6.13;5.53;;;14.60;88.60;;;;;;4971590;28;20657;-87
2023/06/25 04:45:14;;;;;;;7.60;5.65;;;14.60;87.80;;;;;;4978326;28;20733;-85
2023/06/25 04:47:41;;;;;;;9.23;5.80;;;14.70;86.40;;;;;;4985879;28;20197;-87
2023/06/25 04:50:11;;;;;;;6.75;5.55;;;14.70;85.80;;;;;;4993405;28;20917;-87
2023/06/25 04:52:38;;;;;;;5.93;5.32;;;14.80;84.60;;;;;;4989777;28;20295;-86
2023/06/25 04:55:05;;;;;;;8.35;5.82;;;14.90;84.70;;;;;;4976677;28;20645;-88
2023/06/25 04:57:32;;;;;;;5.25;4.75;;;15.00;84.00;;;;;;4974035;28;20215;-89
2023/06/25 05:00:00;;;;;;;6.30;5.28;;;15.10;83.40;;;;;;4987337;28;20577;-86
2023/06/25 05:02:26;;;;;;;6.60;5.88;;;15.20;82.00;;;;;;4975052;28;20199;-87
2023/06/25 05:04:54;;;;;;;6.43;5.70;;;15.30;79.60;;;;;;4988105;28;20204;-86
2023/06/25 05:07:22;;;;;;;6.35;5.43;;;15.50;77.70;;;;;;4972328;28;20255;-87
2023/06/25 05:09:49;;;;;;;9.05;5.20;;;15.50;77.70;;;;;;4992457;28;20555;-88
2023/06/25 05:12:16;;;;;;;5.53;5.03;;;15.60;75.60;;;;;;4977612;28;20199;-86
2023/06/25 05:14:43;;;;;;;8.57;5.38;;;15.80;74.40;;;;;;4992237;28;20278;-89
2023/06/25 05:17:10;;;;;;;5.95;5.32;;;15.80;75.00;;;;;;4973020;28;20317;-85
2023/06/25 05:19:37;;;;;;;6.13;5.40;;;15.80;76.40;;;;;;4990968;28;20207;-89
2023/06/25 05:22:05;;;;;;;5.63;5.10;;;15.90;72.10;;;;;;4988957;28;20197;-85
2023/06/25 05:24:34;;;;;;;6.07;4.97;;;15.90;73.70;;;;;;4970085;28;20196;-86
2023/06/25 05:27:01;;;;;;;5.88;5.22;;;16.00;73.40;;;;;;4975624;28;20220;-88
2023/06/25 05:29:28;;;;;;;6.63;5.20;;;16.10;73.50;;;;;;4955982;28;20204;-86
2023/06/25 05:31:55;;;;;;;5.53;4.93;;;16.30;71.80;;;;;;4993974;28;20199;-88
2023/06/25 05:34:22;;;;;;;5.95;5.30;;;16.60;64.90;;;;;;4990629;28;20671;-87
2023/06/25 05:36:49;;;;;;;5.45;4.90;;;16.80;63.20;;;;;;4985720;28;20203;-88
2023/06/25 05:39:16;;;;;;;5.47;4.97;;;17.00;59.60;;;;;;4988784;28;20201;-86
2023/06/25 05:41:44;;;;;;;5.75;4.68;;;17.20;59.00;;;;;;4971233;28;20262;-86
2023/06/25 05:44:11;;;;;;;5.45;4.95;;;17.60;53.70;;;;;;4986525;28;20685;-91
2023/06/25 05:46:38;;;;;;;6.35;4.68;;;18.00;54.10;;;;;;4989954;28;20235;-89
2023/06/25 05:49:05;;;;;;;5.18;4.68;;;18.40;48.20;;;;;;4972381;28;20235;-87
2023/06/25 05:51:32;;;;;;;5.45;4.93;;;19.20;41.00;;;;;;4970635;28;20204;-91
2023/06/25 05:53:59;;;;;;;5.30;4.78;;;20.00;35.00;;;;;;4987948;28;20207;-85
2023/06/25 05:56:26;;;;;;;5.00;4.50;;;20.20;32.20;;;;;;4989924;28;20204;-88
2023/06/25 05:59:04;;;;;;;4.97;4.47;;;20.30;33.00;;;;;;4958233;28;20211;-87
2023/06/25 06:01:39;;;;;;;5.13;4.63;;;20.50;32.50;;;;;;4986355;28;20211;-86
2023/06/25 06:04:06;;;;;;;4.95;4.55;;;20.30;31.10;;;;;;4964574;28;20262;-86
2023/06/25 06:06:33;;;;;;;5.75;4.72;;;19.80;31.90;;;;;;4988887;28;20583;-88
2023/06/25 06:09:00;;;;;;;5.07;4.63;;;19.60;36.40;;;;;;4971786;28;20624;-88
2023/06/25 06:11:27;;;;;;;4.63;4.22;;;19.40;36.80;;;;;;4981152;28;20200;-87
2023/06/25 06:13:55;;;;;;;4.90;4.40;;;19.20;37.30;;;;;;4985613;28;20204;-88
2023/06/25 06:16:22;;;;;;;4.53;4.13;;;19.10;37.40;;;;;;4980853;28;20200;-84
2023/06/25 06:18:49;;;;;;;6.18;4.63;;;19.10;39.20;;;;;;4959967;28;20216;-85
2023/06/25 06:21:16;;;;;;;5.32;4.82;;;19.10;38.40;;;;;;4969210;28;20204;-87
2023/06/25 06:23:43;;;;;;;5.68;4.55;;;18.80;36.00;;;;;;4991083;28;20657;-88
2023/06/25 06:26:10;;;;;;;4.85;4.35;;;18.90;40.10;;;;;;4984346;28;20222;-91
2023/06/25 06:28:37;;;;;;;4.50;4.10;;;19.00;39.70;;;;;;4988581;28;20211;-87
2023/06/25 06:31:05;;;;;;;5.10;4.60;;;19.10;38.30;;;;;;4987933;28;20206;-89
2023/06/25 06:33:32;;;;;;;6.97;5.30;;;19.30;36.50;;;;;;4988644;28;20542;-88
2023/06/25 06:35:58;;;;;;;4.88;4.47;;;19.30;36.60;;;;;;4979981;28;20219;-89
2023/06/25 06:38:25;;;;;;;4.30;3.90;;;19.40;38.40;;;;;;4989393;28;20199;-90
2023/06/25 06:40:52;;;;;;;4.63;4.22;;;19.50;34.60;;;;;;4968055;28;20211;-86
2023/06/25 06:43:19;;;;;;;7.30;4.57;;;19.50;35.30;;;;;;4984897;28;20611;-88
2023/06/25 06:45:46;;;;;;;5.80;4.30;;;19.50;35.50;;;;;;4988135;28;20637;-90
2023/06/25 06:48:15;;;;;;;4.93;4.07;;;19.70;35.50;;;;;;4986672;28;21555;-87
2023/06/25 06:50:42;;;;;;;5.82;4.53;;;19.80;36.60;;;;;;4988098;28;20200;-87
2023/06/25 06:53:09;;;;;;;5.05;4.53;;;19.90;34.60;;;;;;4986403;28;20207;-89
2023/06/25 06:55:36;;;;;;;4.70;4.30;;;20.00;33.50;;;;;;4984909;28;20232;-90
2023/06/25 06:58:03;;;;;;;5.10;4.60;;;20.10;32.20;;;;;;4978875;28;20218;-87
2023/06/25 07:00:30;;;;;;;5.75;4.22;;;20.20;32.20;;;;;;4984583;28;20196;-88
2023/06/25 07:02:59;;;;;;;4.68;4.28;;;20.30;32.30;;;;;;4990461;28;20232;-86
2023/06/25 07:05:27;;;;;;;5.70;4.00;;;20.40;32.40;;;;;;4971071;28;20200;-89
2023/06/25 07:07:54;;;;;;;4.38;3.78;;;20.40;32.40;;;;;;4984095;28;20227;-87
2023/06/25 07:10:21;;;;;;;4.80;4.40;;;20.70;32.60;;;;;;4970846;28;20197;-88
2023/06/25 07:12:48;;;;;;;4.82;4.38;;;21.60;28.70;;;;;;4972846;28;20204;-88
2023/06/25 07:15:15;;;;;;;3.85;3.55;;;22.50;24.10;;;;;;4990970;28;20203;-87
2023/06/25 07:17:42;;;;;;;7.93;4.40;;;23.10;20.60;;;;;;4975508;28;20303;-86
2023/06/25 07:20:10;;;;;;;6.43;4.40;;;23.50;20.00;;;;;;4988843;28;20222;-87
2023/06/25 07:22:40;;;;;;;4.90;4.45;;;23.60;18.90;;;;;;4968339;28;20207;-90
2023/06/25 07:25:08;;;;;;;5.10;4.20;;;23.40;18.90;;;;;;4989672;28;20299;-89
2023/06/25 07:27:34;;;;;;;4.85;4.00;;;23.40;19.80;;;;;;4978879;28;20246;-89
2023/06/25 07:30:02;;;;;;;5.32;4.05;;;23.40;20.00;;;;;;4988739;28;20192;-85
2023/06/25 07:32:29;;;;;;;4.45;4.05;;;23.30;20.10;;;;;;4993861;28;20208;-87
2023/06/25 07:35:13;;;;;;;5.05;4.20;;;23.30;18.60;;;;;;4993918;28;20216;-85
2023/06/25 07:37:42;;;;;;;4.18;3.78;;;23.00;19.40;;;;;;4994818;28;20555;-87
2023/06/25 07:40:09;;;;;;;4.53;4.13;;;22.90;18.80;;;;;;4991432;28;20653;-85
2023/06/25 07:46:29;;;;;;;4.88;4.38;;;22.80;19.40;;;;;;4995891;28;20574;-87
2023/06/25 07:53:19;;;;;;;4.72;4.20;;;22.80;19.10;;;;;;4981639;28;20183;-88
2023/06/25 07:56:14;;;;;;;4.95;4.47;;;22.70;20.00;;;;;;4979955;28;20227;-87
2023/06/25 07:58:44;;;;;;;4.35;3.95;;;22.80;19.40;;;;;;4984519;28;20199;-91
2023/06/25 08:01:10;;;;;;;4.60;4.20;;;22.80;20.60;;;;;;4997376;28;20223;-87
2023/06/25 08:03:37;;;;;;;5.57;4.45;;;23.00;19.20;;;;;;4996679;28;20214;-88
2023/06/25 08:06:04;;;;;;;4.43;4.03;;;23.40;18.80;;;;;;4976126;28;20196;-91
2023/06/25 08:08:31;;;;;;;4.72;4.22;;;23.90;17.30;;;;;;4997541;28;20204;-90
2023/06/25 08:10:58;;;;;;;5.07;4.30;;;24.00;17.80;;;;;;4978536;28;20204;-87
2023/06/25 08:13:26;;;;;;;6.50;4.30;;;23.90;17.40;;;;;;4973454;28;20265;-89
2023/06/25 08:15:54;;;;;;;4.75;4.35;;;23.50;18.20;;;;;;4977978;28;20200;-88
2023/06/25 08:18:22;;;;;;;4.72;4.28;;;23.70;19.10;;;;;;4957528;28;20222;-92
2023/06/25 08:20:48;;;;;;;4.75;4.13;;;24.40;17.30;;;;;;4993569;28;20200;-88
2023/06/25 08:23:15;;;;;;;4.72;4.32;;;25.40;15.70;;;;;;4996352;28;20203;-86
2023/06/25 08:25:42;;;;;;;4.53;4.15;;;27.60;12.20;;;;;;4975057;28;20227;-88
2023/06/25 08:28:09;;;;;;;4.78;4.38;;;29.40;9.60;;;;;;4979902;28;20302;-88
2023/06/25 08:30:38;;;;;;;4.80;4.40;;;31.30;5.20;;;;;;4993265;28;20210;-86
2023/06/25 08:33:05;;;;;;;5.68;5.18;;;31.70;4.60;;;;;;4998153;28;20620;-89
2023/06/25 08:36:11;;;;;;;5.45;4.95;;;32.50;3.20;;;;;;4981099;28;20218;-90
2023/06/25 08:38:38;;;;;;;5.40;5.00;;;32.90;2.70;;;;;;4998456;28;20635;-90
2023/06/25 08:41:05;;;;;;;5.18;4.78;;;33.30;2.70;;;;;;4980792;28;20195;-90
2023/06/25 08:50:27;;;;;;;5.35;4.95;;;33.30;1.00;;;;;;4991440;28;20271;-88
2023/06/25 08:52:54;;;;;;;9.68;5.00;;;33.10;1.00;;;;;;4992472;28;20202;-91
2023/06/25 08:55:24;;;;;;;5.28;4.78;;;32.90;1.30;;;;;;4970086;28;20889;-90
2023/06/25 08:57:51;;;;;;;5.35;4.95;;;33.20;1.60;;;;;;4992789;28;20208;-90
2023/06/25 09:00:21;;;;;;;5.50;5.10;;;33.90;1.00;;;;;;4995585;28;20567;-90
2023/06/25 09:02:48;;;;;;;6.13;5.63;;;34.00;1.00;;;;;;4988707;28;20218;-90
2023/06/25 09:05:26;;;;;;;6.85;5.05;;;35.10;1.00;;;;;;4988972;28;20215;-91
2023/06/25 09:07:53;;;;;;;5.80;5.30;;;35.10;1.00;;;;;;4975674;28;20275;-90
2023/06/25 09:10:20;;;;;;;6.38;5.88;;;34.60;1.00;;;;;;4996243;28;20203;-87
2023/06/25 09:12:49;;;;;;;6.00;5.45;;;34.30;1.00;;;;;;4987659;28;20204;-90
2023/06/25 09:15:20;;;;;;;5.95;5.40;;;34.70;1.00;;;;;;4990132;28;20198;-89
2023/06/25 09:17:47;;;;;;;6.25;5.75;;;34.80;1.00;;;;;;4988229;28;20285;-91
2023/06/25 09:20:15;;;;;;;6.47;5.88;;;34.50;1.00;;;;;;4965218;28;20254;-91
2023/06/25 09:39:57;;;;;;;7.30;6.60;;;34.60;1.00;;;;;;4997823;28;20196;-89
2023/06/25 10:04:00;;;;;;;7.38;6.78;;;33.90;1.00;;;;;;4955679;29;20247;-90
2023/06/25 10:06:32;;;;;;;7.15;6.60;;;33.90;1.00;;;;;;4928406;28;20237;-86
2023/06/25 10:09:01;;;;;;;13.13;8.13;;;34.10;1.00;;;;;;4985187;28;20195;-90
2023/06/25 10:11:28;;;;;;;7.15;6.55;;;34.60;1.00;;;;;;4968937;28;20244;-92
2023/06/25 10:13:58;;;;;;;7.03;6.45;;;35.20;1.00;;;;;;4989301;28;20214;-89
2023/06/25 10:16:30;;;;;;;7.00;6.38;;;34.80;1.00;;;;;;4987356;28;20202;-90
2023/06/25 10:18:58;;;;;;;7.10;6.50;;;34.40;1.00;;;;;;4975741;28;20228;-92
2023/06/25 10:24:11;;;;;;;8.10;6.88;;;35.50;1.00;;;;;;4984659;28;20315;-94
2023/06/25 10:26:51;;;;;;;7.22;6.53;;;34.20;1.00;;;;;;4987377;28;20202;-91
2023/06/25 10:29:18;;;;;;;7.43;6.82;;;33.00;1.60;;;;;;4997495;28;20199;-91
2023/06/25 10:31:46;;;;;;;7.50;6.90;;;32.30;1.00;;;;;;4961900;28;20246;-90
2023/06/25 10:34:20;;;;;;;7.43;6.70;;;32.40;1.00;;;;;;4990493;28;20274;-90
2023/06/25 10:36:51;;;;;;;7.03;6.53;;;32.50;1.00;;;;;;4990259;28;20562;-89
2023/06/25 10:39:19;;;;;;;7.22;6.63;;;32.40;1.00;;;;;;4970710;28;21095;-88
2023/06/25 10:41:48;;;;;;;7.70;6.80;;;32.30;1.20;;;;;;4983099;28;20200;-90
2023/06/25 10:44:15;;;;;;;7.30;6.78;;;32.20;1.00;;;;;;4963204;28;20869;-85
2023/06/25 10:46:42;;;;;;;7.10;6.50;;;32.10;1.00;;;;;;4982074;28;20561;-88
2023/06/25 10:49:10;;;;;;;8.88;6.95;;;32.00;2.80;;;;;;4976898;28;20666;-89
2023/06/25 10:51:37;;;;;;;7.85;7.05;;;31.40;1.90;;;;;;4983764;28;20245;-85
2023/06/25 10:54:04;;;;;;;9.73;7.00;;;31.50;2.70;;;;;;4968272;28;20212;-91
2023/06/25 10:56:34;;;;;;;8.05;7.35;;;31.40;3.80;;;;;;4986964;28;20208;-88
2023/06/25 10:59:00;;;;;;;7.25;6.72;;;31.70;1.00;;;;;;4982210;28;20204;-88
2023/06/25 11:01:34;;;;;;;8.40;7.70;;;32.30;1.00;;;;;;4968764;28;20644;-90
2023/06/25 11:04:00;;;;;;;7.60;6.88;;;32.40;1.00;;;;;;4987909;28;20211;-90
2023/06/25 11:06:28;;;;;;;15.30;7.28;;;32.00;1.70;;;;;;4972660;28;20207;-90
2023/06/25 11:08:55;;;;;;;8.07;7.28;;;32.10;1.00;;;;;;4979969;28;20227;-89
2023/06/25 11:11:22;;;;;;;7.13;6.47;;;31.70;1.00;;;;;;4971013;28;20195;-88
2023/06/25 11:13:51;;;;;;;7.13;6.43;;;31.20;1.00;;;;;;4967668;28;20254;-86
2023/06/25 11:16:19;;;;;;;8.27;6.70;;;30.80;2.20;;;;;;4983068;28;20224;-89
2023/06/25 11:18:50;;;;;;;7.28;6.57;;;30.60;3.70;;;;;;4964331;28;20681;-87
2023/06/25 11:21:18;;;;;;;25.10;6.68;;;29.90;3.80;;;;;;4996603;28;20303;-88
2023/06/25 11:23:45;;;;;;;7.60;6.38;;;29.60;5.80;;;;;;4993302;28;20291;-88
2023/06/25 11:26:14;;;;;;;6.45;5.85;;;29.50;3.00;;;;;;5004710;28;20293;-89
2023/06/25 11:28:41;;;;;;;6.55;5.95;;;29.40;6.40;;;;;;4985503;28;20247;-88
2023/06/25 11:31:10;;;;;;;6.72;6.05;;;28.90;5.60;;;;;;4994100;28;20200;-87
2023/06/25 11:33:37;;;;;;;7.72;7.03;;;28.90;5.10;;;;;;4980795;28;20198;-89
2023/06/25 11:36:09;;;;;;;8.32;6.20;;;28.70;6.10;;;;;;4990712;28;20203;-89
2023/06/25 11:38:35;;;;;;;6.43;5.82;;;28.80;5.90;;;;;;4996708;28;20206;-87
2023/06/25 11:41:03;;;;;;;6.35;5.75;;;28.70;6.10;;;;;;4972304;28;20207;-89
2023/06/25 11:43:34;;;;;;;6.65;6.05;;;28.80;5.30;;;;;;4993092;28;20203;-88
2023/06/25 11:46:02;;;;;;;7.22;6.55;;;28.80;6.10;;;;;;4992546;28;20576;-88
2023/06/25 11:48:33;;;;;;;6.70;6.10;;;28.80;6.40;;;;;;4974310;28;20285;-89
2023/06/25 11:51:09;;;;;;;6.95;6.18;;;28.90;5.90;;;;;;4985993;28;20207;-90
2023/06/25 11:53:36;;;;;;;10.13;6.47;;;28.90;5.80;;;;;;4970681;28;20196;-91
2023/06/25 11:56:02;;;;;;;7.13;6.40;;;28.80;5.20;;;;;;4995128;28;20207;-89
2023/06/25 11:58:30;;;;;;;6.68;5.97;;;28.70;6.10;;;;;;4968176;28;20566;-89
2023/06/25 12:00:57;;;;;;;6.63;6.03;;;28.40;6.20;;;;;;4998249;28;20207;-87
2023/06/25 12:03:24;;;;;;;6.50;5.90;;;28.50;5.30;;;;;;4998140;28;20204;-89
2023/06/25 12:05:52;;;;;;;6.80;5.93;;;28.40;6.80;;;;;;4977903;28;20219;-90
2023/06/25 12:08:19;;;;;;;7.85;6.45;;;28.50;5.70;;;;;;4975420;28;20231;-84
2023/06/25 12:10:46;;;;;;;7.88;7.18;;;28.60;7.20;;;;;;4983338;28;20203;-83
2023/06/25 12:13:13;;;;;;;7.80;7.10;;;28.70;5.40;;;;;;4983364;28;20644;-80
2023/06/25 12:15:40;;;;;;;27.08;24.42;;;28.70;6.40;;;;;;4980831;28;20251;-84
2023/06/25 12:18:06;;;;;;;8.80;8.00;;;28.60;6.60;;;;;;4971930;28;20262;-84
2023/06/25 12:20:33;;;;;;;7.32;6.63;;;28.40;6.20;;;;;;4988289;28;20199;-85
2023/06/25 12:23:02;;;;;;;7.35;6.65;;;28.40;4.90;;;;;;4963392;28;20210;-86
2023/06/25 12:25:28;;;;;;;7.38;6.30;;;28.40;6.20;;;;;;4990310;28;20195;-84
2023/06/25 12:27:55;;;;;;;7.60;6.90;;;28.40;5.00;;;;;;4985680;28;20219;-83
2023/06/25 12:30:22;;;;;;;7.70;6.95;;;28.50;6.30;;;;;;4954994;28;20228;-84
2023/06/25 12:32:49;;;;;;;7.50;6.70;;;28.40;6.20;;;;;;4991597;28;20234;-84
2023/06/25 12:35:16;;;;;;;8.60;7.15;;;28.50;6.30;;;;;;4985732;28;20210;-83
2023/06/25 12:37:43;;;;;;;7.85;7.05;;;28.40;6.20;;;;;;4953628;28;20195;-85
2023/06/25 12:40:12;;;;;;;7.40;6.70;;;28.60;5.20;;;;;;4983015;28;20218;-82
2023/06/25 12:42:39;;;;;;;7.28;6.68;;;28.70;4.20;;;;;;4983819;28;20214;-83
2023/06/25 12:45:07;;;;;;;7.18;6.47;;;28.60;4.80;;;;;;4986224;28;20195;-84
2023/06/25 12:47:34;;;;;;;9.05;6.28;;;28.60;5.00;;;;;;4986558;28;20219;-83
2023/06/25 12:50:01;;;;;;;7.90;6.32;;;28.40;5.50;;;;;;4989929;28;20212;-83
2023/06/25 12:52:30;;;;;;;7.57;6.85;;;28.60;4.00;;;;;;4968945;28;20538;-89
2023/06/25 12:54:57;;;;;;;7.82;7.03;;;28.50;5.00;;;;;;4985386;28;20202;-83
2023/06/25 12:57:25;;;;;;;7.60;5.97;;;28.50;5.30;;;;;;4986646;28;20200;-85
2023/06/25 12:59:52;;;;;;;9.38;6.97;;;28.40;5.20;;;;;;4976364;28;20200;-90
2023/06/25 13:02:19;;;;;;;7.60;6.78;;;28.40;3.90;;;;;;4966664;28;20196;-87
2023/06/25 13:04:46;;;;;;;7.28;6.65;;;28.40;4.80;;;;;;4982827;28;20188;-88
2023/06/25 13:07:13;;;;;;;7.38;6.68;;;28.40;4.40;;;;;;4984624;28;20208;-88
2023/06/25 13:09:40;;;;;;;7.38;6.68;;;28.40;4.20;;;;;;4961787;28;20230;-83
2023/06/25 13:12:07;;;;;;;8.55;7.53;;;28.20;5.30;;;;;;4990738;28;20683;-84
2023/06/25 13:14:35;;;;;;;8.27;7.47;;;28.20;5.10;;;;;;4989215;28;20199;-91
2023/06/25 13:17:02;;;;;;;9.68;7.93;;;28.20;6.10;;;;;;4985964;28;20251;-83
2023/06/25 13:19:29;;;;;;;7.82;6.78;;;28.20;6.10;;;;;;4989679;28;20223;-89
2023/06/25 13:21:56;;;;;;;7.88;7.10;;;28.20;6.20;;;;;;4990554;28;20204;-87
2023/06/25 13:24:23;;;;;;;8.10;7.30;;;28.20;7.60;;;;;;4987364;28;20207;-88
2023/06/25 13:26:51;;;;;;;7.82;7.03;;;28.20;6.20;;;;;;4991795;28;20215;-89
2023/06/25 13:29:18;;;;;;;7.88;7.07;;;28.30;6.00;;;;;;4991148;28;20219;-88
2023/06/25 13:31:46;;;;;;;8.07;6.95;;;28.40;3.80;;;;;;4961881;28;20203;-87
2023/06/25 13:34:13;;;;;;;8.93;6.68;;;28.40;5.10;;;;;;4983037;28;20196;-85
2023/06/25 13:36:40;;;;;;;7.50;6.80;;;28.40;6.00;;;;;;4972828;28;20206;-87
2023/06/25 13:39:07;;;;;;;8.68;7.50;;;28.40;6.20;;;;;;4987069;28;20200;-85
2023/06/25 13:41:34;;;;;;;7.97;7.20;;;28.50;5.70;;;;;;4969853;28;20207;-86
2023/06/25 13:44:02;;;;;;;18.83;7.45;;;28.60;5.30;;;;;;4981482;28;20215;-86
2023/06/25 13:46:29;;;;;;;7.50;6.80;;;28.30;4.40;;;;;;4989118;28;20290;-85
2023/06/25 13:48:57;;;;;;;7.65;6.95;;;28.00;4.20;;;;;;4988688;28;20731;-86